sensor_id;sensor_type;location;lat;lon;timestamp;P1;durP1;ratioP1;P2;durP2;ratioP2
58966;SDS011;44744;51.894;5.080;2024-02-21T00:02:48;9.00;;;4.10;;
58966;SDS011;44744;51.894;5.080;2024-02-21T00:07:48;9.60;;;4.00;;
58966;SDS011;44744;51.894;5.080;2024-02-21T00:12:49;11.10;;;4.10;;
58966;SDS011;44744;51.894;5.080;2024-02-21T00:17:49;8.40;;;3.60;;
58966;SDS011;44744;51.894;5.080;2024-02-21T00:22:50;12.40;;;3.80;;
58966;SDS011;44744;51.894;5.080;2024-02-21T00:27:50;11.40;;;4.00;;
58966;SDS011;44744;51.894;5.080;2024-02-21T00:32:50;8.80;;;4.10;;
58966;SDS011;44744;51.894;5.080;2024-02-21T00:37:51;13.20;;;4.30;;
58966;SDS011;44744;51.894;5.080;2024-02-21T00:42:55;9.40;;;4.00;;
58966;SDS011;44744;51.894;5.080;2024-02-21T00:47:55;10.70;;;4.10;;
58966;SDS011;44744;51.894;5.080;2024-02-21T00:52:56;10.40;;;3.60;;
58966;SDS011;44744;51.894;5.080;2024-02-21T00:57:56;10.00;;;4.30;;
58966;SDS011;44744;51.894;5.080;2024-02-21T01:02:57;10.80;;;3.50;;
58966;SDS011;44744;51.894;5.080;2024-02-21T01:07:57;11.10;;;4.10;;
58966;SDS011;44744;51.894;5.080;2024-02-21T01:12:57;12.40;;;3.70;;
58966;SDS011;44744;51.894;5.080;2024-02-21T01:17:58;11.70;;;3.70;;
58966;SDS011;44744;51.894;5.080;2024-02-21T01:23:01;10.90;;;3.60;;
58966;SDS011;44744;51.894;5.080;2024-02-21T01:28:01;11.10;;;3.90;;
58966;SDS011;44744;51.894;5.080;2024-02-21T01:33:02;13.90;;;4.60;;
58966;SDS011;44744;51.894;5.080;2024-02-21T01:38:04;10.50;;;3.50;;
58966;SDS011;44744;51.894;5.080;2024-02-21T01:43:14;10.50;;;4.00;;
58966;SDS011;44744;51.894;5.080;2024-02-21T01:48:18;9.20;;;3.90;;
58966;SDS011;44744;51.894;5.080;2024-02-21T01:53:22;8.70;;;4.10;;
58966;SDS011;44744;51.894;5.080;2024-02-21T01:58:25;10.10;;;3.70;;
58966;SDS011;44744;51.894;5.080;2024-02-21T02:03:26;11.40;;;4.00;;
58966;SDS011;44744;51.894;5.080;2024-02-21T02:08:27;13.30;;;4.60;;
58966;SDS011;44744;51.894;5.080;2024-02-21T02:13:28;9.90;;;4.20;;
58966;SDS011;44744;51.894;5.080;2024-02-21T02:18:28;12.60;;;5.10;;
58966;SDS011;44744;51.894;5.080;2024-02-21T02:23:29;11.00;;;4.60;;
58966;SDS011;44744;51.894;5.080;2024-02-21T02:28:33;10.00;;;4.60;;
58966;SDS011;44744;51.894;5.080;2024-02-21T02:33:34;10.80;;;4.60;;
58966;SDS011;44744;51.894;5.080;2024-02-21T02:38:34;14.00;;;4.80;;
58966;SDS011;44744;51.894;5.080;2024-02-21T02:43:34;11.20;;;4.60;;
58966;SDS011;44744;51.894;5.080;2024-02-21T02:48:36;9.90;;;4.10;;
58966;SDS011;44744;51.894;5.080;2024-02-21T02:53:38;11.10;;;4.10;;
58966;SDS011;44744;51.894;5.080;2024-02-21T02:58:38;8.80;;;4.20;;
58966;SDS011;44744;51.894;5.080;2024-02-21T03:03:39;7.80;;;3.80;;
58966;SDS011;44744;51.894;5.080;2024-02-21T03:08:39;10.10;;;4.30;;
58966;SDS011;44744;51.894;5.080;2024-02-21T03:13:40;10.80;;;4.00;;
58966;SDS011;44744;51.894;5.080;2024-02-21T03:18:40;9.40;;;4.30;;
58966;SDS011;44744;51.894;5.080;2024-02-21T03:23:43;10.20;;;4.00;;
58966;SDS011;44744;51.894;5.080;2024-02-21T03:28:44;9.90;;;4.20;;
58966;SDS011;44744;51.894;5.080;2024-02-21T03:33:49;10.60;;;4.10;;
58966;SDS011;44744;51.894;5.080;2024-02-21T03:38:49;11.70;;;4.80;;
58966;SDS011;44744;51.894;5.080;2024-02-21T03:43:49;9.40;;;4.40;;
58966;SDS011;44744;51.894;5.080;2024-02-21T03:48:50;8.10;;;4.00;;
58966;SDS011;44744;51.894;5.080;2024-02-21T03:53:50;11.90;;;4.00;;
58966;SDS011;44744;51.894;5.080;2024-02-21T03:58:51;10.50;;;4.70;;
58966;SDS011;44744;51.894;5.080;2024-02-21T04:03:53;6.90;;;4.20;;
58966;SDS011;44744;51.894;5.080;2024-02-21T04:08:56;9.80;;;4.30;;
58966;SDS011;44744;51.894;5.080;2024-02-21T04:13:57;6.80;;;4.20;;
58966;SDS011;44744;51.894;5.080;2024-02-21T04:18:58;8.00;;;4.60;;
58966;SDS011;44744;51.894;5.080;2024-02-21T04:23:59;6.70;;;3.80;;
58966;SDS011;44744;51.894;5.080;2024-02-21T04:29:01;6.80;;;4.30;;
58966;SDS011;44744;51.894;5.080;2024-02-21T04:34:02;12.20;;;5.20;;
58966;SDS011;44744;51.894;5.080;2024-02-21T04:39:03;7.10;;;4.40;;
58966;SDS011;44744;51.894;5.080;2024-02-21T04:44:03;10.00;;;4.50;;
58966;SDS011;44744;51.894;5.080;2024-02-21T04:49:04;9.50;;;4.70;;
58966;SDS011;44744;51.894;5.080;2024-02-21T04:54:04;13.50;;;4.90;;
58966;SDS011;44744;51.894;5.080;2024-02-21T04:59:04;9.60;;;5.10;;
58966;SDS011;44744;51.894;5.080;2024-02-21T05:04:05;13.70;;;5.10;;
58966;SDS011;44744;51.894;5.080;2024-02-21T05:09:06;12.70;;;6.20;;
58966;SDS011;44744;51.894;5.080;2024-02-21T05:14:07;10.30;;;5.50;;
58966;SDS011;44744;51.894;5.080;2024-02-21T05:19:07;13.00;;;6.50;;
58966;SDS011;44744;51.894;5.080;2024-02-21T05:29:12;11.90;;;6.70;;
58966;SDS011;44744;51.894;5.080;2024-02-21T05:34:12;12.80;;;6.90;;
58966;SDS011;44744;51.894;5.080;2024-02-21T05:39:13;13.60;;;6.90;;
58966;SDS011;44744;51.894;5.080;2024-02-21T05:44:14;10.30;;;6.50;;
58966;SDS011;44744;51.894;5.080;2024-02-21T05:49:18;13.80;;;7.90;;
58966;SDS011;44744;51.894;5.080;2024-02-21T05:54:22;16.90;;;8.10;;
58966;SDS011;44744;51.894;5.080;2024-02-21T05:59:22;16.00;;;8.50;;
58966;SDS011;44744;51.894;5.080;2024-02-21T06:04:23;21.00;;;8.50;;
58966;SDS011;44744;51.894;5.080;2024-02-21T06:09:23;18.70;;;9.10;;
58966;SDS011;44744;51.894;5.080;2024-02-21T06:14:24;20.60;;;8.90;;
58966;SDS011;44744;51.894;5.080;2024-02-21T06:19:24;20.50;;;9.50;;
58966;SDS011;44744;51.894;5.080;2024-02-21T06:24:25;17.10;;;9.60;;
58966;SDS011;44744;51.894;5.080;2024-02-21T06:29:25;22.30;;;9.80;;
58966;SDS011;44744;51.894;5.080;2024-02-21T06:34:26;19.10;;;9.40;;
58966;SDS011;44744;51.894;5.080;2024-02-21T06:39:26;15.40;;;9.30;;
58966;SDS011;44744;51.894;5.080;2024-02-21T06:44:28;16.90;;;8.20;;
58966;SDS011;44744;51.894;5.080;2024-02-21T06:49:29;19.40;;;9.30;;
58966;SDS011;44744;51.894;5.080;2024-02-21T06:54:30;17.70;;;8.40;;
58966;SDS011;44744;51.894;5.080;2024-02-21T06:59:31;16.90;;;8.70;;
58966;SDS011;44744;51.894;5.080;2024-02-21T07:04:31;15.50;;;8.50;;
58966;SDS011;44744;51.894;5.080;2024-02-21T07:09:31;21.50;;;9.10;;
58966;SDS011;44744;51.894;5.080;2024-02-21T07:14:32;15.30;;;8.60;;
58966;SDS011;44744;51.894;5.080;2024-02-21T07:19:35;18.10;;;8.70;;
58966;SDS011;44744;51.894;5.080;2024-02-21T07:24:36;18.00;;;9.40;;
58966;SDS011;44744;51.894;5.080;2024-02-21T07:29:37;19.80;;;8.70;;
58966;SDS011;44744;51.894;5.080;2024-02-21T07:34:38;16.80;;;8.80;;
58966;SDS011;44744;51.894;5.080;2024-02-21T07:39:39;14.90;;;8.50;;
58966;SDS011;44744;51.894;5.080;2024-02-21T07:44:49;12.10;;;7.80;;
58966;SDS011;44744;51.894;5.080;2024-02-21T07:49:49;18.70;;;9.50;;
58966;SDS011;44744;51.894;5.080;2024-02-21T07:54:50;24.60;;;10.70;;
58966;SDS011;44744;51.894;5.080;2024-02-21T08:00:00;19.00;;;9.60;;
58966;SDS011;44744;51.894;5.080;2024-02-21T08:05:21;17.40;;;9.90;;
58966;SDS011;44744;51.894;5.080;2024-02-21T08:10:22;19.20;;;9.40;;
58966;SDS011;44744;51.894;5.080;2024-02-21T08:15:24;16.80;;;10.20;;
58966;SDS011;44744;51.894;5.080;2024-02-21T08:20:28;20.80;;;10.90;;
58966;SDS011;44744;51.894;5.080;2024-02-21T08:25:29;12.20;;;8.00;;
58966;SDS011;44744;51.894;5.080;2024-02-21T08:30:29;14.70;;;8.50;;
58966;SDS011;44744;51.894;5.080;2024-02-21T08:35:30;20.00;;;9.30;;
58966;SDS011;44744;51.894;5.080;2024-02-21T08:40:31;13.30;;;7.60;;
58966;SDS011;44744;51.894;5.080;2024-02-21T08:45:35;13.40;;;7.80;;
58966;SDS011;44744;51.894;5.080;2024-02-21T08:50:35;15.70;;;8.20;;
58966;SDS011;44744;51.894;5.080;2024-02-21T08:55:36;13.50;;;8.70;;
58966;SDS011;44744;51.894;5.080;2024-02-21T09:00:37;12.10;;;7.90;;
58966;SDS011;44744;51.894;5.080;2024-02-21T09:05:37;14.30;;;8.00;;
58966;SDS011;44744;51.894;5.080;2024-02-21T09:10:39;16.80;;;8.20;;
58966;SDS011;44744;51.894;5.080;2024-02-21T09:15:42;16.60;;;8.00;;
58966;SDS011;44744;51.894;5.080;2024-02-21T09:20:43;12.40;;;7.20;;
58966;SDS011;44744;51.894;5.080;2024-02-21T09:25:49;11.20;;;7.10;;
58966;SDS011;44744;51.894;5.080;2024-02-21T09:30:52;13.40;;;7.80;;
58966;SDS011;44744;51.894;5.080;2024-02-21T09:35:58;14.70;;;7.30;;
58966;SDS011;44744;51.894;5.080;2024-02-21T09:40:59;13.90;;;7.00;;
58966;SDS011;44744;51.894;5.080;2024-02-21T09:46:11;17.00;;;8.00;;
58966;SDS011;44744;51.894;5.080;2024-02-21T09:51:16;11.60;;;7.20;;
58966;SDS011;44744;51.894;5.080;2024-02-21T09:56:18;8.90;;;6.20;;
58966;SDS011;44744;51.894;5.080;2024-02-21T10:01:18;10.50;;;6.90;;
58966;SDS011;44744;51.894;5.080;2024-02-21T10:06:19;9.10;;;6.10;;
58966;SDS011;44744;51.894;5.080;2024-02-21T10:11:25;10.80;;;6.00;;
58966;SDS011;44744;51.894;5.080;2024-02-21T10:16:26;10.10;;;5.20;;
58966;SDS011;44744;51.894;5.080;2024-02-21T10:21:26;10.90;;;5.00;;
58966;SDS011;44744;51.894;5.080;2024-02-21T10:26:27;11.40;;;5.70;;
58966;SDS011;44744;51.894;5.080;2024-02-21T10:31:30;8.60;;;4.90;;
58966;SDS011;44744;51.894;5.080;2024-02-21T10:36:33;9.70;;;5.70;;
58966;SDS011;44744;51.894;5.080;2024-02-21T10:41:34;9.00;;;5.90;;
58966;SDS011;44744;51.894;5.080;2024-02-21T10:46:37;14.00;;;6.80;;
58966;SDS011;44744;51.894;5.080;2024-02-21T10:51:40;11.40;;;7.70;;
58966;SDS011;44744;51.894;5.080;2024-02-21T10:56:44;9.40;;;7.70;;
58966;SDS011;44744;51.894;5.080;2024-02-21T11:01:45;10.60;;;7.40;;
58966;SDS011;44744;51.894;5.080;2024-02-21T11:06:49;12.20;;;7.40;;
58966;SDS011;44744;51.894;5.080;2024-02-21T11:11:50;13.50;;;7.10;;
58966;SDS011;44744;51.894;5.080;2024-02-21T11:16:53;10.80;;;6.10;;
58966;SDS011;44744;51.894;5.080;2024-02-21T11:21:56;9.50;;;6.10;;
58966;SDS011;44744;51.894;5.080;2024-02-21T11:32:14;8.10;;;6.10;;
58966;SDS011;44744;51.894;5.080;2024-02-21T11:37:20;9.90;;;6.30;;
58966;SDS011;44744;51.894;5.080;2024-02-21T11:42:20;11.60;;;6.20;;
58966;SDS011;44744;51.894;5.080;2024-02-21T11:47:21;7.60;;;5.50;;
58966;SDS011;44744;51.894;5.080;2024-02-21T11:52:22;10.10;;;5.90;;
58966;SDS011;44744;51.894;5.080;2024-02-21T11:57:25;9.30;;;5.70;;
58966;SDS011;44744;51.894;5.080;2024-02-21T12:02:26;11.20;;;5.70;;
58966;SDS011;44744;51.894;5.080;2024-02-21T12:07:27;8.50;;;5.70;;
58966;SDS011;44744;51.894;5.080;2024-02-21T12:12:28;9.00;;;4.90;;
58966;SDS011;44744;51.894;5.080;2024-02-21T12:17:29;9.70;;;5.10;;
58966;SDS011;44744;51.894;5.080;2024-02-21T12:22:30;6.80;;;4.30;;
58966;SDS011;44744;51.894;5.080;2024-02-21T12:27:32;8.20;;;5.10;;
58966;SDS011;44744;51.894;5.080;2024-02-21T12:32:33;9.00;;;4.90;;
58966;SDS011;44744;51.894;5.080;2024-02-21T12:37:33;8.00;;;4.40;;
58966;SDS011;44744;51.894;5.080;2024-02-21T12:42:34;10.30;;;4.60;;
58966;SDS011;44744;51.894;5.080;2024-02-21T12:47:35;7.20;;;4.00;;
58966;SDS011;44744;51.894;5.080;2024-02-21T12:52:35;7.70;;;4.60;;
58966;SDS011;44744;51.894;5.080;2024-02-21T12:57:36;10.60;;;4.30;;
58966;SDS011;44744;51.894;5.080;2024-02-21T13:02:37;6.30;;;4.10;;
58966;SDS011;44744;51.894;5.080;2024-02-21T13:07:37;7.80;;;3.80;;
58966;SDS011;44744;51.894;5.080;2024-02-21T13:12:38;8.00;;;4.00;;
58966;SDS011;44744;51.894;5.080;2024-02-21T13:17:40;12.00;;;3.90;;
58966;SDS011;44744;51.894;5.080;2024-02-21T13:22:41;7.00;;;3.50;;
58966;SDS011;44744;51.894;5.080;2024-02-21T13:27:42;8.70;;;4.20;;
58966;SDS011;44744;51.894;5.080;2024-02-21T13:32:42;8.20;;;3.40;;
58966;SDS011;44744;51.894;5.080;2024-02-21T13:37:43;14.20;;;4.30;;
58966;SDS011;44744;51.894;5.080;2024-02-21T13:42:43;8.70;;;4.00;;
58966;SDS011;44744;51.894;5.080;2024-02-21T13:47:44;8.30;;;4.00;;
58966;SDS011;44744;51.894;5.080;2024-02-21T13:52:44;8.20;;;4.10;;
58966;SDS011;44744;51.894;5.080;2024-02-21T13:57:45;7.00;;;3.80;;
58966;SDS011;44744;51.894;5.080;2024-02-21T14:02:45;12.00;;;4.10;;
58966;SDS011;44744;51.894;5.080;2024-02-21T14:07:46;7.10;;;3.70;;
58966;SDS011;44744;51.894;5.080;2024-02-21T14:12:47;6.70;;;3.70;;
58966;SDS011;44744;51.894;5.080;2024-02-21T14:17:48;8.30;;;3.70;;
58966;SDS011;44744;51.894;5.080;2024-02-21T14:22:48;6.70;;;3.20;;
58966;SDS011;44744;51.894;5.080;2024-02-21T14:27:49;8.20;;;3.50;;
58966;SDS011;44744;51.894;5.080;2024-02-21T14:32:49;7.10;;;3.30;;
58966;SDS011;44744;51.894;5.080;2024-02-21T14:37:51;7.20;;;3.60;;
58966;SDS011;44744;51.894;5.080;2024-02-21T14:42:53;10.90;;;3.90;;
58966;SDS011;44744;51.894;5.080;2024-02-21T14:47:53;8.20;;;4.20;;
58966;SDS011;44744;51.894;5.080;2024-02-21T14:52:55;9.20;;;4.30;;
58966;SDS011;44744;51.894;5.080;2024-02-21T14:57:58;8.30;;;4.60;;
58966;SDS011;44744;51.894;5.080;2024-02-21T15:03:06;8.40;;;3.70;;
58966;SDS011;44744;51.894;5.080;2024-02-21T15:08:09;7.40;;;4.10;;
58966;SDS011;44744;51.894;5.080;2024-02-21T15:13:10;9.40;;;4.90;;
58966;SDS011;44744;51.894;5.080;2024-02-21T15:18:14;6.80;;;4.20;;
58966;SDS011;44744;51.894;5.080;2024-02-21T15:23:18;8.50;;;4.20;;
58966;SDS011;44744;51.894;5.080;2024-02-21T15:28:20;8.30;;;4.10;;
58966;SDS011;44744;51.894;5.080;2024-02-21T15:33:20;6.60;;;4.40;;
58966;SDS011;44744;51.894;5.080;2024-02-21T15:38:21;8.50;;;4.10;;
58966;SDS011;44744;51.894;5.080;2024-02-21T15:43:21;7.20;;;4.40;;
58966;SDS011;44744;51.894;5.080;2024-02-21T15:48:24;7.90;;;4.00;;
58966;SDS011;44744;51.894;5.080;2024-02-21T15:53:25;5.90;;;3.60;;
58966;SDS011;44744;51.894;5.080;2024-02-21T15:58:32;6.40;;;3.90;;
58966;SDS011;44744;51.894;5.080;2024-02-21T16:03:35;7.10;;;3.80;;
58966;SDS011;44744;51.894;5.080;2024-02-21T16:08:35;7.40;;;4.10;;
58966;SDS011;44744;51.894;5.080;2024-02-21T16:13:41;11.60;;;4.00;;
58966;SDS011;44744;51.894;5.080;2024-02-21T16:18:41;7.70;;;4.20;;
58966;SDS011;44744;51.894;5.080;2024-02-21T16:23:42;8.00;;;4.50;;
58966;SDS011;44744;51.894;5.080;2024-02-21T16:28:43;9.60;;;4.90;;
58966;SDS011;44744;51.894;5.080;2024-02-21T16:33:43;8.10;;;4.60;;
58966;SDS011;44744;51.894;5.080;2024-02-21T16:38:44;8.70;;;4.20;;
58966;SDS011;44744;51.894;5.080;2024-02-21T16:43:51;8.60;;;4.10;;
58966;SDS011;44744;51.894;5.080;2024-02-21T16:48:56;7.30;;;4.00;;
58966;SDS011;44744;51.894;5.080;2024-02-21T16:53:56;8.00;;;4.30;;
58966;SDS011;44744;51.894;5.080;2024-02-21T16:58:57;11.40;;;5.00;;
58966;SDS011;44744;51.894;5.080;2024-02-21T17:04:05;11.20;;;4.90;;
58966;SDS011;44744;51.894;5.080;2024-02-21T17:09:07;7.40;;;4.40;;
58966;SDS011;44744;51.894;5.080;2024-02-21T17:14:10;8.30;;;3.80;;
58966;SDS011;44744;51.894;5.080;2024-02-21T17:19:13;10.10;;;5.00;;
58966;SDS011;44744;51.894;5.080;2024-02-21T17:24:14;10.00;;;4.60;;
58966;SDS011;44744;51.894;5.080;2024-02-21T17:29:14;8.90;;;4.70;;
58966;SDS011;44744;51.894;5.080;2024-02-21T17:39:18;6.60;;;4.40;;
58966;SDS011;44744;51.894;5.080;2024-02-21T17:44:19;7.00;;;4.70;;
58966;SDS011;44744;51.894;5.080;2024-02-21T17:49:22;8.90;;;5.30;;
58966;SDS011;44744;51.894;5.080;2024-02-21T17:54:33;10.80;;;4.80;;
58966;SDS011;44744;51.894;5.080;2024-02-21T17:59:38;6.60;;;4.30;;
58966;SDS011;44744;51.894;5.080;2024-02-21T18:04:40;7.80;;;4.50;;
58966;SDS011;44744;51.894;5.080;2024-02-21T18:09:43;6.20;;;4.20;;
58966;SDS011;44744;51.894;5.080;2024-02-21T18:14:43;8.20;;;5.00;;
58966;SDS011;44744;51.894;5.080;2024-02-21T18:19:44;7.50;;;4.50;;
58966;SDS011;44744;51.894;5.080;2024-02-21T18:24:47;8.50;;;4.20;;
58966;SDS011;44744;51.894;5.080;2024-02-21T18:29:47;6.10;;;4.20;;
58966;SDS011;44744;51.894;5.080;2024-02-21T18:34:49;7.20;;;4.30;;
58966;SDS011;44744;51.894;5.080;2024-02-21T18:39:50;5.40;;;4.10;;
58966;SDS011;44744;51.894;5.080;2024-02-21T18:44:53;7.80;;;4.50;;
58966;SDS011;44744;51.894;5.080;2024-02-21T18:49:54;7.30;;;4.10;;
58966;SDS011;44744;51.894;5.080;2024-02-21T18:54:54;7.90;;;4.10;;
58966;SDS011;44744;51.894;5.080;2024-02-21T18:59:55;6.40;;;4.20;;
58966;SDS011;44744;51.894;5.080;2024-02-21T19:04:55;6.30;;;4.20;;
58966;SDS011;44744;51.894;5.080;2024-02-21T19:09:56;5.10;;;4.10;;
58966;SDS011;44744;51.894;5.080;2024-02-21T19:14:57;7.10;;;4.70;;
58966;SDS011;44744;51.894;5.080;2024-02-21T19:19:57;4.90;;;4.00;;
58966;SDS011;44744;51.894;5.080;2024-02-21T19:24:58;6.90;;;4.30;;
58966;SDS011;44744;51.894;5.080;2024-02-21T19:30:02;7.60;;;4.80;;
58966;SDS011;44744;51.894;5.080;2024-02-21T19:35:21;5.40;;;4.10;;
58966;SDS011;44744;51.894;5.080;2024-02-21T19:40:24;7.70;;;4.50;;
58966;SDS011;44744;51.894;5.080;2024-02-21T19:45:32;5.80;;;4.50;;
58966;SDS011;44744;51.894;5.080;2024-02-21T19:50:34;5.30;;;3.90;;
58966;SDS011;44744;51.894;5.080;2024-02-21T19:55:38;5.40;;;4.20;;
58966;SDS011;44744;51.894;5.080;2024-02-21T20:00:39;5.20;;;4.20;;
58966;SDS011;44744;51.894;5.080;2024-02-21T20:05:39;5.20;;;4.00;;
58966;SDS011;44744;51.894;5.080;2024-02-21T20:10:42;6.40;;;4.20;;
58966;SDS011;44744;51.894;5.080;2024-02-21T20:15:43;6.20;;;3.90;;
58966;SDS011;44744;51.894;5.080;2024-02-21T20:20:43;7.20;;;4.20;;
58966;SDS011;44744;51.894;5.080;2024-02-21T20:25:44;5.80;;;4.20;;
58966;SDS011;44744;51.894;5.080;2024-02-21T20:30:45;7.20;;;4.40;;
58966;SDS011;44744;51.894;5.080;2024-02-21T20:35:48;5.20;;;3.90;;
58966;SDS011;44744;51.894;5.080;2024-02-21T20:40:51;4.70;;;3.50;;
58966;SDS011;44744;51.894;5.080;2024-02-21T20:45:55;4.30;;;3.90;;
58966;SDS011;44744;51.894;5.080;2024-02-21T20:50:55;3.90;;;3.40;;
58966;SDS011;44744;51.894;5.080;2024-02-21T20:55:56;4.60;;;3.50;;
58966;SDS011;44744;51.894;5.080;2024-02-21T21:00:56;4.50;;;3.40;;
58966;SDS011;44744;51.894;5.080;2024-02-21T21:05:57;4.50;;;3.80;;
58966;SDS011;44744;51.894;5.080;2024-02-21T21:10:57;4.40;;;3.70;;
58966;SDS011;44744;51.894;5.080;2024-02-21T21:15:58;4.70;;;3.50;;
58966;SDS011;44744;51.894;5.080;2024-02-21T21:20:59;3.80;;;3.20;;
58966;SDS011;44744;51.894;5.080;2024-02-21T21:26:00;5.10;;;3.70;;
58966;SDS011;44744;51.894;5.080;2024-02-21T21:31:00;4.10;;;3.70;;
58966;SDS011;44744;51.894;5.080;2024-02-21T21:36:01;4.30;;;3.30;;
58966;SDS011;44744;51.894;5.080;2024-02-21T21:41:03;4.70;;;3.90;;
58966;SDS011;44744;51.894;5.080;2024-02-21T21:46:13;4.90;;;4.20;;
58966;SDS011;44744;51.894;5.080;2024-02-21T21:51:34;5.50;;;3.90;;
58966;SDS011;44744;51.894;5.080;2024-02-21T21:56:35;4.20;;;3.80;;
58966;SDS011;44744;51.894;5.080;2024-02-21T22:01:35;4.80;;;4.30;;
58966;SDS011;44744;51.894;5.080;2024-02-21T22:06:38;5.50;;;4.40;;
58966;SDS011;44744;51.894;5.080;2024-02-21T22:11:40;5.60;;;4.80;;
58966;SDS011;44744;51.894;5.080;2024-02-21T22:16:40;5.40;;;4.90;;
58966;SDS011;44744;51.894;5.080;2024-02-21T22:21:43;5.20;;;4.50;;
58966;SDS011;44744;51.894;5.080;2024-02-21T22:26:44;6.50;;;5.90;;
58966;SDS011;44744;51.894;5.080;2024-02-21T22:31:44;6.10;;;5.50;;
58966;SDS011;44744;51.894;5.080;2024-02-21T22:36:45;6.90;;;6.20;;
58966;SDS011;44744;51.894;5.080;2024-02-21T22:41:46;6.70;;;6.00;;
58966;SDS011;44744;51.894;5.080;2024-02-21T22:46:47;7.10;;;6.50;;
58966;SDS011;44744;51.894;5.080;2024-02-21T22:51:47;6.50;;;5.90;;
58966;SDS011;44744;51.894;5.080;2024-02-21T22:56:48;7.30;;;6.40;;
58966;SDS011;44744;51.894;5.080;2024-02-21T23:01:48;7.60;;;6.90;;
58966;SDS011;44744;51.894;5.080;2024-02-21T23:06:50;8.30;;;7.50;;
58966;SDS011;44744;51.894;5.080;2024-02-21T23:11:50;8.90;;;8.10;;
58966;SDS011;44744;51.894;5.080;2024-02-21T23:16:51;9.40;;;7.70;;
58966;SDS011;44744;51.894;5.080;2024-02-21T23:21:51;8.90;;;7.90;;
58966;SDS011;44744;51.894;5.080;2024-02-21T23:26:52;9.90;;;9.00;;
58966;SDS011;44744;51.894;5.080;2024-02-21T23:31:55;10.10;;;9.20;;
58966;SDS011;44744;51.894;5.080;2024-02-21T23:36:59;9.50;;;8.60;;
58966;SDS011;44744;51.894;5.080;2024-02-21T23:41:59;10.80;;;9.80;;
58966;SDS011;44744;51.894;5.080;2024-02-21T23:47:01;10.60;;;9.50;;
58966;SDS011;44744;51.894;5.080;2024-02-21T23:52:04;9.90;;;9.00;;
58966;SDS011;44744;51.894;5.080;2024-02-21T23:57:06;10.20;;;9.20;;
